sensor_id;sensor_type;location;lat;lon;timestamp;P1;durP1;ratioP1;P2;durP2;ratioP2
25615;SDS011;13482;48.234;13.006;2023-07-02T00:00:14;2.10;;;1.20;;
25615;SDS011;13482;48.234;13.006;2023-07-02T00:02:42;2.08;;;1.30;;
25615;SDS011;13482;48.234;13.006;2023-07-02T00:05:09;2.28;;;1.30;;
25615;SDS011;13482;48.234;13.006;2023-07-02T00:07:37;1.95;;;1.20;;
25615;SDS011;13482;48.234;13.006;2023-07-02T00:10:05;1.60;;;1.00;;
25615;SDS011;13482;48.234;13.006;2023-07-02T00:12:32;3.15;;;1.63;;
25615;SDS011;13482;48.234;13.006;2023-07-02T00:15:00;2.78;;;1.50;;
25615;SDS011;13482;48.234;13.006;2023-07-02T00:17:28;2.20;;;1.50;;
25615;SDS011;13482;48.234;13.006;2023-07-02T00:19:56;2.30;;;1.30;;
25615;SDS011;13482;48.234;13.006;2023-07-02T00:22:29;2.28;;;1.50;;
25615;SDS011;13482;48.234;13.006;2023-07-02T00:24:57;2.20;;;1.40;;
25615;SDS011;13482;48.234;13.006;2023-07-02T00:27:25;2.28;;;1.50;;
25615;SDS011;13482;48.234;13.006;2023-07-02T00:29:53;2.35;;;1.45;;
25615;SDS011;13482;48.234;13.006;2023-07-02T00:32:21;1.90;;;1.17;;
25615;SDS011;13482;48.234;13.006;2023-07-02T00:34:49;4.43;;;1.70;;
25615;SDS011;13482;48.234;13.006;2023-07-02T00:37:16;1.90;;;1.30;;
25615;SDS011;13482;48.234;13.006;2023-07-02T00:39:43;2.17;;;1.40;;
25615;SDS011;13482;48.234;13.006;2023-07-02T00:42:11;2.20;;;1.52;;
25615;SDS011;13482;48.234;13.006;2023-07-02T00:44:40;4.18;;;1.25;;
25615;SDS011;13482;48.234;13.006;2023-07-02T00:47:08;2.00;;;1.23;;
25615;SDS011;13482;48.234;13.006;2023-07-02T00:49:36;1.75;;;1.15;;
25615;SDS011;13482;48.234;13.006;2023-07-02T00:52:04;1.60;;;1.15;;
25615;SDS011;13482;48.234;13.006;2023-07-02T00:54:32;1.85;;;1.15;;
25615;SDS011;13482;48.234;13.006;2023-07-02T00:56:59;1.63;;;1.20;;
25615;SDS011;13482;48.234;13.006;2023-07-02T00:59:30;1.42;;;1.10;;
25615;SDS011;13482;48.234;13.006;2023-07-02T01:02:02;1.63;;;1.13;;
25615;SDS011;13482;48.234;13.006;2023-07-02T01:04:31;1.60;;;1.25;;
25615;SDS011;13482;48.234;13.006;2023-07-02T01:06:59;1.98;;;1.27;;
25615;SDS011;13482;48.234;13.006;2023-07-02T01:09:27;2.13;;;1.30;;
25615;SDS011;13482;48.234;13.006;2023-07-02T01:11:55;2.30;;;1.20;;
25615;SDS011;13482;48.234;13.006;2023-07-02T01:14:28;2.28;;;1.35;;
25615;SDS011;13482;48.234;13.006;2023-07-02T01:17:03;1.95;;;1.35;;
25615;SDS011;13482;48.234;13.006;2023-07-02T01:19:48;2.33;;;1.10;;
25615;SDS011;13482;48.234;13.006;2023-07-02T01:22:20;3.08;;;1.40;;
25615;SDS011;13482;48.234;13.006;2023-07-02T01:24:53;1.70;;;1.17;;
25615;SDS011;13482;48.234;13.006;2023-07-02T01:27:22;1.52;;;1.05;;
25615;SDS011;13482;48.234;13.006;2023-07-02T01:29:53;2.58;;;1.38;;
25615;SDS011;13482;48.234;13.006;2023-07-02T01:32:21;1.70;;;1.08;;
25615;SDS011;13482;48.234;13.006;2023-07-02T01:34:49;1.60;;;1.20;;
25615;SDS011;13482;48.234;13.006;2023-07-02T01:37:20;2.35;;;1.25;;
25615;SDS011;13482;48.234;13.006;2023-07-02T01:39:48;2.10;;;1.30;;
25615;SDS011;13482;48.234;13.006;2023-07-02T01:42:16;2.00;;;1.02;;
25615;SDS011;13482;48.234;13.006;2023-07-02T01:44:46;1.80;;;1.30;;
25615;SDS011;13482;48.234;13.006;2023-07-02T01:47:17;1.70;;;1.23;;
25615;SDS011;13482;48.234;13.006;2023-07-02T01:49:46;2.00;;;1.30;;
25615;SDS011;13482;48.234;13.006;2023-07-02T01:52:14;5.07;;;1.20;;
25615;SDS011;13482;48.234;13.006;2023-07-02T01:54:42;2.05;;;1.25;;
25615;SDS011;13482;48.234;13.006;2023-07-02T01:57:10;3.38;;;1.60;;
25615;SDS011;13482;48.234;13.006;2023-07-02T01:59:38;2.03;;;1.10;;
25615;SDS011;13482;48.234;13.006;2023-07-02T02:02:05;1.55;;;0.95;;
25615;SDS011;13482;48.234;13.006;2023-07-02T02:04:33;1.40;;;0.93;;
25615;SDS011;13482;48.234;13.006;2023-07-02T02:07:00;2.30;;;1.27;;
25615;SDS011;13482;48.234;13.006;2023-07-02T02:09:29;1.15;;;0.75;;
25615;SDS011;13482;48.234;13.006;2023-07-02T02:11:59;1.92;;;1.30;;
25615;SDS011;13482;48.234;13.006;2023-07-02T02:14:26;1.83;;;1.33;;
25615;SDS011;13482;48.234;13.006;2023-07-02T02:16:54;1.35;;;0.93;;
25615;SDS011;13482;48.234;13.006;2023-07-02T02:19:21;1.50;;;1.00;;
25615;SDS011;13482;48.234;13.006;2023-07-02T02:21:49;1.77;;;0.90;;
25615;SDS011;13482;48.234;13.006;2023-07-02T02:24:16;1.70;;;1.10;;
25615;SDS011;13482;48.234;13.006;2023-07-02T02:26:44;1.10;;;0.70;;
25615;SDS011;13482;48.234;13.006;2023-07-02T02:29:11;1.38;;;1.02;;
25615;SDS011;13482;48.234;13.006;2023-07-02T02:31:39;1.88;;;1.25;;
25615;SDS011;13482;48.234;13.006;2023-07-02T02:34:06;1.50;;;1.00;;
25615;SDS011;13482;48.234;13.006;2023-07-02T02:36:34;1.92;;;1.10;;
25615;SDS011;13482;48.234;13.006;2023-07-02T02:39:01;1.73;;;1.20;;
25615;SDS011;13482;48.234;13.006;2023-07-02T02:41:29;1.52;;;1.15;;
25615;SDS011;13482;48.234;13.006;2023-07-02T02:43:57;1.63;;;0.95;;
25615;SDS011;13482;48.234;13.006;2023-07-02T02:46:24;1.50;;;0.90;;
25615;SDS011;13482;48.234;13.006;2023-07-02T02:48:52;1.90;;;1.05;;
25615;SDS011;13482;48.234;13.006;2023-07-02T02:51:20;1.60;;;1.00;;
25615;SDS011;13482;48.234;13.006;2023-07-02T02:53:47;1.70;;;1.10;;
25615;SDS011;13482;48.234;13.006;2023-07-02T02:56:15;1.20;;;0.90;;
25615;SDS011;13482;48.234;13.006;2023-07-02T02:58:43;1.55;;;1.05;;
25615;SDS011;13482;48.234;13.006;2023-07-02T03:01:11;1.40;;;1.00;;
25615;SDS011;13482;48.234;13.006;2023-07-02T03:03:39;2.67;;;1.10;;
25615;SDS011;13482;48.234;13.006;2023-07-02T03:06:13;2.83;;;1.15;;
25615;SDS011;13482;48.234;13.006;2023-07-02T03:08:42;1.50;;;1.00;;
25615;SDS011;13482;48.234;13.006;2023-07-02T03:11:09;1.33;;;1.00;;
25615;SDS011;13482;48.234;13.006;2023-07-02T03:13:37;1.80;;;1.02;;
25615;SDS011;13482;48.234;13.006;2023-07-02T03:16:04;1.63;;;1.10;;
25615;SDS011;13482;48.234;13.006;2023-07-02T03:18:32;1.38;;;1.00;;
25615;SDS011;13482;48.234;13.006;2023-07-02T03:21:00;2.08;;;1.08;;
25615;SDS011;13482;48.234;13.006;2023-07-02T03:23:27;1.50;;;1.10;;
25615;SDS011;13482;48.234;13.006;2023-07-02T03:25:55;1.85;;;1.00;;
25615;SDS011;13482;48.234;13.006;2023-07-02T03:28:22;1.80;;;1.00;;
25615;SDS011;13482;48.234;13.006;2023-07-02T03:30:49;1.73;;;1.00;;
25615;SDS011;13482;48.234;13.006;2023-07-02T03:33:17;1.90;;;1.15;;
25615;SDS011;13482;48.234;13.006;2023-07-02T03:35:45;1.60;;;1.15;;
25615;SDS011;13482;48.234;13.006;2023-07-02T03:38:12;3.05;;;1.10;;
25615;SDS011;13482;48.234;13.006;2023-07-02T03:40:41;2.70;;;1.00;;
25615;SDS011;13482;48.234;13.006;2023-07-02T03:43:09;1.50;;;1.05;;
25615;SDS011;13482;48.234;13.006;2023-07-02T03:45:37;1.58;;;0.93;;
25615;SDS011;13482;48.234;13.006;2023-07-02T03:48:04;1.75;;;0.95;;
25615;SDS011;13482;48.234;13.006;2023-07-02T03:50:32;1.38;;;0.90;;
25615;SDS011;13482;48.234;13.006;2023-07-02T03:52:59;1.75;;;1.00;;
25615;SDS011;13482;48.234;13.006;2023-07-02T03:55:27;1.45;;;1.00;;
25615;SDS011;13482;48.234;13.006;2023-07-02T03:57:54;1.95;;;1.00;;
25615;SDS011;13482;48.234;13.006;2023-07-02T04:00:21;1.67;;;1.02;;
25615;SDS011;13482;48.234;13.006;2023-07-02T04:02:49;1.35;;;0.90;;
25615;SDS011;13482;48.234;13.006;2023-07-02T04:05:16;1.40;;;0.88;;
25615;SDS011;13482;48.234;13.006;2023-07-02T04:07:44;1.60;;;1.00;;
25615;SDS011;13482;48.234;13.006;2023-07-02T04:10:11;1.38;;;0.98;;
25615;SDS011;13482;48.234;13.006;2023-07-02T04:12:40;1.63;;;1.00;;
25615;SDS011;13482;48.234;13.006;2023-07-02T04:15:08;1.63;;;0.90;;
25615;SDS011;13482;48.234;13.006;2023-07-02T04:17:36;1.38;;;0.80;;
25615;SDS011;13482;48.234;13.006;2023-07-02T04:20:03;2.30;;;0.80;;
25615;SDS011;13482;48.234;13.006;2023-07-02T04:22:33;1.30;;;0.90;;
25615;SDS011;13482;48.234;13.006;2023-07-02T04:25:00;1.88;;;0.90;;
25615;SDS011;13482;48.234;13.006;2023-07-02T04:27:48;3.58;;;1.27;;
25615;SDS011;13482;48.234;13.006;2023-07-02T04:30:17;1.30;;;0.80;;
25615;SDS011;13482;48.234;13.006;2023-07-02T04:32:45;2.10;;;1.00;;
25615;SDS011;13482;48.234;13.006;2023-07-02T04:35:13;1.15;;;0.85;;
25615;SDS011;13482;48.234;13.006;2023-07-02T04:37:41;2.03;;;1.15;;
25615;SDS011;13482;48.234;13.006;2023-07-02T04:40:08;1.38;;;0.90;;
25615;SDS011;13482;48.234;13.006;2023-07-02T04:42:37;1.67;;;1.00;;
25615;SDS011;13482;48.234;13.006;2023-07-02T04:45:07;1.65;;;1.10;;
25615;SDS011;13482;48.234;13.006;2023-07-02T04:47:35;1.92;;;1.17;;
25615;SDS011;13482;48.234;13.006;2023-07-02T04:50:03;1.50;;;1.00;;
25615;SDS011;13482;48.234;13.006;2023-07-02T04:52:34;1.63;;;1.00;;
25615;SDS011;13482;48.234;13.006;2023-07-02T04:55:02;1.45;;;0.90;;
25615;SDS011;13482;48.234;13.006;2023-07-02T04:57:30;1.60;;;0.88;;
25615;SDS011;13482;48.234;13.006;2023-07-02T04:59:58;1.23;;;0.90;;
25615;SDS011;13482;48.234;13.006;2023-07-02T05:02:25;2.17;;;0.90;;
25615;SDS011;13482;48.234;13.006;2023-07-02T05:04:53;2.60;;;0.95;;
25615;SDS011;13482;48.234;13.006;2023-07-02T05:07:21;1.23;;;0.80;;
25615;SDS011;13482;48.234;13.006;2023-07-02T05:09:48;1.40;;;0.80;;
25615;SDS011;13482;48.234;13.006;2023-07-02T05:12:19;1.40;;;0.88;;
25615;SDS011;13482;48.234;13.006;2023-07-02T05:14:46;1.23;;;0.73;;
25615;SDS011;13482;48.234;13.006;2023-07-02T05:17:13;1.40;;;0.60;;
25615;SDS011;13482;48.234;13.006;2023-07-02T05:19:41;1.85;;;1.10;;
25615;SDS011;13482;48.234;13.006;2023-07-02T05:22:09;1.55;;;0.70;;
25615;SDS011;13482;48.234;13.006;2023-07-02T05:24:37;1.33;;;0.90;;
25615;SDS011;13482;48.234;13.006;2023-07-02T05:27:04;0.80;;;0.60;;
25615;SDS011;13482;48.234;13.006;2023-07-02T05:29:32;1.48;;;0.90;;
25615;SDS011;13482;48.234;13.006;2023-07-02T05:31:59;1.48;;;0.95;;
25615;SDS011;13482;48.234;13.006;2023-07-02T05:34:28;1.13;;;0.77;;
25615;SDS011;13482;48.234;13.006;2023-07-02T05:36:55;2.97;;;1.13;;
25615;SDS011;13482;48.234;13.006;2023-07-02T05:39:22;1.00;;;0.70;;
25615;SDS011;13482;48.234;13.006;2023-07-02T05:41:50;1.40;;;0.80;;
25615;SDS011;13482;48.234;13.006;2023-07-02T05:44:17;1.05;;;0.80;;
25615;SDS011;13482;48.234;13.006;2023-07-02T05:46:45;1.67;;;0.93;;
25615;SDS011;13482;48.234;13.006;2023-07-02T05:49:12;1.75;;;0.82;;
25615;SDS011;13482;48.234;13.006;2023-07-02T05:51:40;2.17;;;1.02;;
25615;SDS011;13482;48.234;13.006;2023-07-02T05:54:07;1.70;;;0.90;;
25615;SDS011;13482;48.234;13.006;2023-07-02T05:56:34;1.60;;;0.90;;
25615;SDS011;13482;48.234;13.006;2023-07-02T05:59:02;1.33;;;0.80;;
25615;SDS011;13482;48.234;13.006;2023-07-02T06:01:29;1.45;;;0.88;;
25615;SDS011;13482;48.234;13.006;2023-07-02T06:03:57;1.58;;;0.90;;
25615;SDS011;13482;48.234;13.006;2023-07-02T06:06:24;1.85;;;0.88;;
25615;SDS011;13482;48.234;13.006;2023-07-02T06:08:52;1.58;;;0.85;;
25615;SDS011;13482;48.234;13.006;2023-07-02T06:11:19;2.03;;;1.10;;
25615;SDS011;13482;48.234;13.006;2023-07-02T06:13:47;1.13;;;0.80;;
25615;SDS011;13482;48.234;13.006;2023-07-02T06:16:14;1.52;;;0.88;;
25615;SDS011;13482;48.234;13.006;2023-07-02T06:18:42;1.52;;;0.85;;
25615;SDS011;13482;48.234;13.006;2023-07-02T06:21:09;1.65;;;0.80;;
25615;SDS011;13482;48.234;13.006;2023-07-02T06:23:43;1.08;;;0.70;;
25615;SDS011;13482;48.234;13.006;2023-07-02T06:26:11;1.08;;;0.68;;
25615;SDS011;13482;48.234;13.006;2023-07-02T06:28:38;1.40;;;0.90;;
25615;SDS011;13482;48.234;13.006;2023-07-02T06:31:06;1.90;;;0.80;;
25615;SDS011;13482;48.234;13.006;2023-07-02T06:33:34;1.63;;;0.90;;
25615;SDS011;13482;48.234;13.006;2023-07-02T06:36:07;1.05;;;0.70;;
25615;SDS011;13482;48.234;13.006;2023-07-02T06:38:38;1.70;;;1.00;;
25615;SDS011;13482;48.234;13.006;2023-07-02T06:41:06;2.08;;;1.13;;
25615;SDS011;13482;48.234;13.006;2023-07-02T06:43:33;1.40;;;0.90;;
25615;SDS011;13482;48.234;13.006;2023-07-02T06:46:01;1.55;;;0.82;;
25615;SDS011;13482;48.234;13.006;2023-07-02T06:48:29;1.40;;;0.80;;
25615;SDS011;13482;48.234;13.006;2023-07-02T06:50:56;1.40;;;0.90;;
25615;SDS011;13482;48.234;13.006;2023-07-02T06:53:24;1.83;;;0.98;;
25615;SDS011;13482;48.234;13.006;2023-07-02T06:55:51;2.72;;;1.02;;
25615;SDS011;13482;48.234;13.006;2023-07-02T06:58:19;1.52;;;0.90;;
25615;SDS011;13482;48.234;13.006;2023-07-02T07:00:46;2.92;;;1.02;;
25615;SDS011;13482;48.234;13.006;2023-07-02T07:03:15;2.00;;;1.08;;
25615;SDS011;13482;48.234;13.006;2023-07-02T07:05:43;1.20;;;0.70;;
25615;SDS011;13482;48.234;13.006;2023-07-02T07:08:11;1.80;;;1.15;;
25615;SDS011;13482;48.234;13.006;2023-07-02T07:10:38;1.83;;;0.88;;
25615;SDS011;13482;48.234;13.006;2023-07-02T07:13:06;0.90;;;0.70;;
25615;SDS011;13482;48.234;13.006;2023-07-02T07:15:37;1.20;;;0.90;;
25615;SDS011;13482;48.234;13.006;2023-07-02T07:18:08;1.95;;;1.00;;
25615;SDS011;13482;48.234;13.006;2023-07-02T07:20:36;1.80;;;0.93;;
25615;SDS011;13482;48.234;13.006;2023-07-02T07:23:09;1.38;;;0.90;;
25615;SDS011;13482;48.234;13.006;2023-07-02T07:25:36;1.50;;;1.00;;
25615;SDS011;13482;48.234;13.006;2023-07-02T07:28:04;1.55;;;0.88;;
25615;SDS011;13482;48.234;13.006;2023-07-02T07:30:31;2.03;;;1.20;;
25615;SDS011;13482;48.234;13.006;2023-07-02T07:32:59;1.70;;;0.90;;
25615;SDS011;13482;48.234;13.006;2023-07-02T07:35:26;2.80;;;0.95;;
25615;SDS011;13482;48.234;13.006;2023-07-02T07:37:54;1.95;;;0.90;;
25615;SDS011;13482;48.234;13.006;2023-07-02T07:40:21;1.70;;;1.02;;
25615;SDS011;13482;48.234;13.006;2023-07-02T07:42:48;2.45;;;0.80;;
25615;SDS011;13482;48.234;13.006;2023-07-02T07:45:16;2.58;;;0.90;;
25615;SDS011;13482;48.234;13.006;2023-07-02T07:47:44;3.75;;;1.00;;
25615;SDS011;13482;48.234;13.006;2023-07-02T07:50:12;1.58;;;0.82;;
25615;SDS011;13482;48.234;13.006;2023-07-02T07:52:40;2.25;;;1.10;;
25615;SDS011;13482;48.234;13.006;2023-07-02T07:55:28;1.80;;;0.85;;
25615;SDS011;13482;48.234;13.006;2023-07-02T07:57:58;2.22;;;0.82;;
25615;SDS011;13482;48.234;13.006;2023-07-02T08:00:37;1.95;;;1.10;;
25615;SDS011;13482;48.234;13.006;2023-07-02T08:03:04;2.00;;;0.80;;
25615;SDS011;13482;48.234;13.006;2023-07-02T08:05:33;2.28;;;1.10;;
25615;SDS011;13482;48.234;13.006;2023-07-02T08:08:00;1.60;;;0.80;;
25615;SDS011;13482;48.234;13.006;2023-07-02T08:10:28;1.50;;;0.90;;
25615;SDS011;13482;48.234;13.006;2023-07-02T08:12:55;1.50;;;0.90;;
25615;SDS011;13482;48.234;13.006;2023-07-02T08:15:23;2.20;;;1.02;;
25615;SDS011;13482;48.234;13.006;2023-07-02T08:17:50;2.45;;;1.15;;
25615;SDS011;13482;48.234;13.006;2023-07-02T08:20:21;1.67;;;1.00;;
25615;SDS011;13482;48.234;13.006;2023-07-02T08:22:49;1.80;;;1.00;;
25615;SDS011;13482;48.234;13.006;2023-07-02T08:25:19;1.58;;;1.10;;
25615;SDS011;13482;48.234;13.006;2023-07-02T08:27:48;1.75;;;1.00;;
25615;SDS011;13482;48.234;13.006;2023-07-02T08:30:17;1.52;;;0.93;;
25615;SDS011;13482;48.234;13.006;2023-07-02T08:32:45;1.70;;;1.00;;
25615;SDS011;13482;48.234;13.006;2023-07-02T08:35:13;1.80;;;0.90;;
25615;SDS011;13482;48.234;13.006;2023-07-02T08:37:41;2.08;;;1.00;;
25615;SDS011;13482;48.234;13.006;2023-07-02T08:40:18;1.80;;;1.08;;
25615;SDS011;13482;48.234;13.006;2023-07-02T08:42:47;1.67;;;0.98;;
25615;SDS011;13482;48.234;13.006;2023-07-02T08:45:24;1.88;;;1.08;;
25615;SDS011;13482;48.234;13.006;2023-07-02T08:48:49;1.70;;;0.90;;
25615;SDS011;13482;48.234;13.006;2023-07-02T08:51:17;3.60;;;1.60;;
25615;SDS011;13482;48.234;13.006;2023-07-02T08:53:47;2.25;;;1.73;;
25615;SDS011;13482;48.234;13.006;2023-07-02T08:56:14;2.70;;;1.35;;
25615;SDS011;13482;48.234;13.006;2023-07-02T08:58:46;1.80;;;1.33;;
25615;SDS011;13482;48.234;13.006;2023-07-02T09:01:14;1.77;;;1.00;;
25615;SDS011;13482;48.234;13.006;2023-07-02T09:03:42;2.28;;;1.15;;
25615;SDS011;13482;48.234;13.006;2023-07-02T09:06:10;1.75;;;1.02;;
25615;SDS011;13482;48.234;13.006;2023-07-02T09:08:39;2.10;;;1.30;;
25615;SDS011;13482;48.234;13.006;2023-07-02T09:13:48;2.33;;;1.40;;
25615;SDS011;13482;48.234;13.006;2023-07-02T09:19:03;1.52;;;1.02;;
25615;SDS011;13482;48.234;13.006;2023-07-02T09:21:47;1.88;;;1.13;;
25615;SDS011;13482;48.234;13.006;2023-07-02T09:24:16;2.57;;;1.23;;
25615;SDS011;13482;48.234;13.006;2023-07-02T09:26:52;1.65;;;1.00;;
25615;SDS011;13482;48.234;13.006;2023-07-02T09:29:31;1.75;;;1.20;;
25615;SDS011;13482;48.234;13.006;2023-07-02T09:32:01;1.83;;;1.15;;
25615;SDS011;13482;48.234;13.006;2023-07-02T09:34:37;2.17;;;1.20;;
25615;SDS011;13482;48.234;13.006;2023-07-02T09:37:07;1.85;;;1.10;;
25615;SDS011;13482;48.234;13.006;2023-07-02T09:39:35;1.98;;;1.10;;
25615;SDS011;13482;48.234;13.006;2023-07-02T09:42:06;2.30;;;1.35;;
25615;SDS011;13482;48.234;13.006;2023-07-02T09:44:36;1.45;;;0.90;;
25615;SDS011;13482;48.234;13.006;2023-07-02T09:47:05;2.47;;;1.17;;
25615;SDS011;13482;48.234;13.006;2023-07-02T09:49:35;1.70;;;1.30;;
25615;SDS011;13482;48.234;13.006;2023-07-02T09:52:09;1.67;;;1.10;;
25615;SDS011;13482;48.234;13.006;2023-07-02T09:54:38;1.75;;;1.00;;
25615;SDS011;13482;48.234;13.006;2023-07-02T09:57:05;2.28;;;1.40;;
25615;SDS011;13482;48.234;13.006;2023-07-02T09:59:34;1.92;;;0.90;;
25615;SDS011;13482;48.234;13.006;2023-07-02T10:02:01;1.42;;;0.93;;
25615;SDS011;13482;48.234;13.006;2023-07-02T10:04:39;2.22;;;1.02;;
25615;SDS011;13482;48.234;13.006;2023-07-02T10:07:09;1.83;;;1.10;;
25615;SDS011;13482;48.234;13.006;2023-07-02T10:09:38;1.35;;;0.93;;
25615;SDS011;13482;48.234;13.006;2023-07-02T10:12:31;1.60;;;1.00;;
25615;SDS011;13482;48.234;13.006;2023-07-02T10:14:59;1.75;;;1.10;;
25615;SDS011;13482;48.234;13.006;2023-07-02T10:17:33;1.73;;;1.08;;
25615;SDS011;13482;48.234;13.006;2023-07-02T10:20:04;1.00;;;0.77;;
25615;SDS011;13482;48.234;13.006;2023-07-02T10:22:47;1.33;;;0.98;;
25615;SDS011;13482;48.234;13.006;2023-07-02T10:25:26;1.73;;;1.00;;
25615;SDS011;13482;48.234;13.006;2023-07-02T10:27:56;2.08;;;1.23;;
25615;SDS011;13482;48.234;13.006;2023-07-02T10:30:34;1.42;;;0.98;;
25615;SDS011;13482;48.234;13.006;2023-07-02T10:33:16;1.88;;;1.05;;
25615;SDS011;13482;48.234;13.006;2023-07-02T10:35:45;1.23;;;0.90;;
25615;SDS011;13482;48.234;13.006;2023-07-02T10:43:27;1.10;;;0.88;;
25615;SDS011;13482;48.234;13.006;2023-07-02T10:45:59;1.15;;;0.82;;
25615;SDS011;13482;48.234;13.006;2023-07-02T10:48:28;1.38;;;0.82;;
25615;SDS011;13482;48.234;13.006;2023-07-02T10:50:56;1.45;;;0.98;;
25615;SDS011;13482;48.234;13.006;2023-07-02T10:53:24;2.58;;;1.00;;
25615;SDS011;13482;48.234;13.006;2023-07-02T10:55:55;1.85;;;1.10;;
25615;SDS011;13482;48.234;13.006;2023-07-02T10:58:24;1.50;;;1.00;;
25615;SDS011;13482;48.234;13.006;2023-07-02T11:00:52;1.15;;;0.80;;
25615;SDS011;13482;48.234;13.006;2023-07-02T11:03:21;1.58;;;0.77;;
25615;SDS011;13482;48.234;13.006;2023-07-02T11:05:51;1.40;;;0.80;;
25615;SDS011;13482;48.234;13.006;2023-07-02T11:08:20;2.08;;;0.80;;
25615;SDS011;13482;48.234;13.006;2023-07-02T11:10:50;1.50;;;0.90;;
25615;SDS011;13482;48.234;13.006;2023-07-02T11:13:21;1.60;;;0.98;;
25615;SDS011;13482;48.234;13.006;2023-07-02T11:15:49;1.20;;;0.70;;
25615;SDS011;13482;48.234;13.006;2023-07-02T11:18:17;1.17;;;0.60;;
25615;SDS011;13482;48.234;13.006;2023-07-02T11:20:48;1.17;;;0.60;;
25615;SDS011;13482;48.234;13.006;2023-07-02T11:23:16;1.38;;;0.80;;
25615;SDS011;13482;48.234;13.006;2023-07-02T11:25:55;0.73;;;0.50;;
25615;SDS011;13482;48.234;13.006;2023-07-02T11:28:30;1.00;;;0.68;;
25615;SDS011;13482;48.234;13.006;2023-07-02T11:31:04;1.30;;;0.70;;
25615;SDS011;13482;48.234;13.006;2023-07-02T11:36:04;1.05;;;0.75;;
25615;SDS011;13482;48.234;13.006;2023-07-02T11:38:33;1.00;;;0.50;;
25615;SDS011;13482;48.234;13.006;2023-07-02T11:41:03;0.90;;;0.60;;
25615;SDS011;13482;48.234;13.006;2023-07-02T11:43:32;1.90;;;0.60;;
25615;SDS011;13482;48.234;13.006;2023-07-02T11:46:00;1.40;;;0.70;;
25615;SDS011;13482;48.234;13.006;2023-07-02T11:48:28;0.88;;;0.68;;
25615;SDS011;13482;48.234;13.006;2023-07-02T11:50:56;1.88;;;0.80;;
25615;SDS011;13482;48.234;13.006;2023-07-02T11:53:23;1.45;;;0.80;;
25615;SDS011;13482;48.234;13.006;2023-07-02T11:55:51;1.25;;;0.88;;
25615;SDS011;13482;48.234;13.006;2023-07-02T11:58:18;1.20;;;0.88;;
25615;SDS011;13482;48.234;13.006;2023-07-02T12:00:46;1.50;;;0.80;;
25615;SDS011;13482;48.234;13.006;2023-07-02T12:03:13;1.20;;;0.80;;
25615;SDS011;13482;48.234;13.006;2023-07-02T12:05:41;1.60;;;0.93;;
25615;SDS011;13482;48.234;13.006;2023-07-02T12:08:09;2.13;;;1.35;;
25615;SDS011;13482;48.234;13.006;2023-07-02T12:10:36;1.63;;;1.05;;
25615;SDS011;13482;48.234;13.006;2023-07-02T12:13:04;1.40;;;0.90;;
25615;SDS011;13482;48.234;13.006;2023-07-02T12:15:32;2.47;;;1.67;;
25615;SDS011;13482;48.234;13.006;2023-07-02T12:17:59;3.33;;;1.60;;
25615;SDS011;13482;48.234;13.006;2023-07-02T12:20:27;2.75;;;1.90;;
25615;SDS011;13482;48.234;13.006;2023-07-02T12:22:54;3.40;;;1.70;;
25615;SDS011;13482;48.234;13.006;2023-07-02T12:25:26;2.72;;;1.90;;
25615;SDS011;13482;48.234;13.006;2023-07-02T12:27:54;2.65;;;1.88;;
25615;SDS011;13482;48.234;13.006;2023-07-02T12:30:21;2.83;;;1.90;;
25615;SDS011;13482;48.234;13.006;2023-07-02T12:32:49;2.95;;;1.95;;
25615;SDS011;13482;48.234;13.006;2023-07-02T12:35:16;2.85;;;2.10;;
25615;SDS011;13482;48.234;13.006;2023-07-02T12:37:48;3.30;;;2.05;;
25615;SDS011;13482;48.234;13.006;2023-07-02T12:40:18;3.03;;;2.00;;
25615;SDS011;13482;48.234;13.006;2023-07-02T12:42:47;3.30;;;2.17;;
25615;SDS011;13482;48.234;13.006;2023-07-02T12:45:18;3.83;;;2.50;;
25615;SDS011;13482;48.234;13.006;2023-07-02T12:47:47;3.60;;;2.47;;
25615;SDS011;13482;48.234;13.006;2023-07-02T12:50:15;3.53;;;2.60;;
25615;SDS011;13482;48.234;13.006;2023-07-02T12:52:43;3.10;;;2.35;;
25615;SDS011;13482;48.234;13.006;2023-07-02T12:55:10;3.92;;;2.80;;
25615;SDS011;13482;48.234;13.006;2023-07-02T12:57:38;3.78;;;3.05;;
25615;SDS011;13482;48.234;13.006;2023-07-02T13:00:05;3.97;;;3.00;;
25615;SDS011;13482;48.234;13.006;2023-07-02T13:02:36;3.70;;;3.00;;
25615;SDS011;13482;48.234;13.006;2023-07-02T13:05:23;4.32;;;2.90;;
25615;SDS011;13482;48.234;13.006;2023-07-02T13:07:50;4.05;;;2.83;;
25615;SDS011;13482;48.234;13.006;2023-07-02T13:10:18;4.10;;;3.08;;
25615;SDS011;13482;48.234;13.006;2023-07-02T13:12:45;4.40;;;3.38;;
25615;SDS011;13482;48.234;13.006;2023-07-02T13:15:13;5.65;;;4.28;;
25615;SDS011;13482;48.234;13.006;2023-07-02T13:17:40;7.22;;;4.95;;
25615;SDS011;13482;48.234;13.006;2023-07-02T13:20:08;4.93;;;3.58;;
25615;SDS011;13482;48.234;13.006;2023-07-02T13:22:36;4.63;;;3.75;;
25615;SDS011;13482;48.234;13.006;2023-07-02T13:25:04;6.10;;;4.07;;
25615;SDS011;13482;48.234;13.006;2023-07-02T13:27:33;5.78;;;3.90;;
25615;SDS011;13482;48.234;13.006;2023-07-02T13:30:00;5.38;;;4.20;;
25615;SDS011;13482;48.234;13.006;2023-07-02T13:32:29;5.97;;;4.10;;
25615;SDS011;13482;48.234;13.006;2023-07-02T13:34:57;6.60;;;4.90;;
25615;SDS011;13482;48.234;13.006;2023-07-02T13:37:25;5.43;;;4.45;;
25615;SDS011;13482;48.234;13.006;2023-07-02T13:39:53;4.60;;;3.95;;
25615;SDS011;13482;48.234;13.006;2023-07-02T13:42:20;6.88;;;4.88;;
25615;SDS011;13482;48.234;13.006;2023-07-02T13:44:48;5.75;;;4.88;;
25615;SDS011;13482;48.234;13.006;2023-07-02T13:47:15;7.07;;;5.20;;
25615;SDS011;13482;48.234;13.006;2023-07-02T13:49:43;6.75;;;4.80;;
25615;SDS011;13482;48.234;13.006;2023-07-02T13:52:10;5.97;;;4.60;;
25615;SDS011;13482;48.234;13.006;2023-07-02T13:54:38;7.13;;;5.05;;
25615;SDS011;13482;48.234;13.006;2023-07-02T13:57:05;5.68;;;4.68;;
25615;SDS011;13482;48.234;13.006;2023-07-02T13:59:33;6.40;;;4.65;;
25615;SDS011;13482;48.234;13.006;2023-07-02T14:02:00;5.55;;;4.15;;
25615;SDS011;13482;48.234;13.006;2023-07-02T14:04:28;5.53;;;4.38;;
25615;SDS011;13482;48.234;13.006;2023-07-02T14:06:56;5.65;;;4.03;;
25615;SDS011;13482;48.234;13.006;2023-07-02T14:09:23;5.47;;;4.30;;
25615;SDS011;13482;48.234;13.006;2023-07-02T14:11:50;5.47;;;4.20;;
25615;SDS011;13482;48.234;13.006;2023-07-02T14:14:18;4.85;;;4.10;;
25615;SDS011;13482;48.234;13.006;2023-07-02T14:16:46;9.68;;;4.93;;
25615;SDS011;13482;48.234;13.006;2023-07-02T14:19:13;5.68;;;4.28;;
25615;SDS011;13482;48.234;13.006;2023-07-02T14:21:44;5.07;;;4.20;;
25615;SDS011;13482;48.234;13.006;2023-07-02T14:24:13;5.03;;;4.03;;
25615;SDS011;13482;48.234;13.006;2023-07-02T14:26:41;5.22;;;4.25;;
25615;SDS011;13482;48.234;13.006;2023-07-02T14:29:10;5.78;;;4.50;;
25615;SDS011;13482;48.234;13.006;2023-07-02T14:31:38;6.50;;;5.00;;
25615;SDS011;13482;48.234;13.006;2023-07-02T14:34:05;5.47;;;4.32;;
25615;SDS011;13482;48.234;13.006;2023-07-02T14:36:33;6.78;;;4.80;;
25615;SDS011;13482;48.234;13.006;2023-07-02T14:39:01;6.25;;;4.97;;
25615;SDS011;13482;48.234;13.006;2023-07-02T14:41:28;7.18;;;5.30;;
25615;SDS011;13482;48.234;13.006;2023-07-02T14:44:02;6.00;;;4.88;;
25615;SDS011;13482;48.234;13.006;2023-07-02T14:46:31;7.85;;;5.38;;
25615;SDS011;13482;48.234;13.006;2023-07-02T14:48:59;6.43;;;5.20;;
25615;SDS011;13482;48.234;13.006;2023-07-02T14:51:27;6.95;;;5.15;;
25615;SDS011;13482;48.234;13.006;2023-07-02T14:53:54;6.93;;;5.55;;
25615;SDS011;13482;48.234;13.006;2023-07-02T14:56:22;7.43;;;6.00;;